createdAt,value
2023-05-14T00:00:31.248Z,95.84
2023-05-14T00:01:31.216Z,96.00
2023-05-14T00:02:31.280Z,96.12
2023-05-14T00:03:31.283Z,96.12
2023-05-14T00:04:31.404Z,96.25
2023-05-14T00:05:31.187Z,96.30
2023-05-14T00:06:31.169Z,96.41
2023-05-14T00:07:31.189Z,96.36
2023-05-14T00:08:31.129Z,96.41
2023-05-14T00:09:31.119Z,96.42
2023-05-14T00:10:31.126Z,96.45
2023-05-14T00:11:31.089Z,96.53
2023-05-14T00:12:31.091Z,96.62
2023-05-14T00:13:31.102Z,96.71
2023-05-14T00:14:31.052Z,96.80
2023-05-14T00:15:32.949Z,96.89
2023-05-14T00:16:31.131Z,96.86
2023-05-14T00:17:31.058Z,96.86
2023-05-14T00:18:31.077Z,96.83
2023-05-14T00:19:30.998Z,96.90
2023-05-14T00:20:30.989Z,96.87
2023-05-14T00:21:30.972Z,96.84
2023-05-14T00:22:30.971Z,96.84
2023-05-14T00:23:30.939Z,96.89
2023-05-14T00:24:30.934Z,96.93
2023-05-14T00:25:30.917Z,96.86
2023-05-14T00:26:30.905Z,96.93
2023-05-14T00:27:30.902Z,96.92
2023-05-14T00:28:30.917Z,97.00
2023-05-14T00:29:30.873Z,97.07
2023-05-14T00:30:30.847Z,97.11
2023-05-14T00:31:30.927Z,97.11
2023-05-14T00:32:30.845Z,97.03
2023-05-14T00:33:30.815Z,97.03
2023-05-14T00:34:30.813Z,97.06
2023-05-14T00:35:30.796Z,97.06
2023-05-14T00:36:30.815Z,97.01
2023-05-14T00:37:30.762Z,96.96
2023-05-14T00:38:30.749Z,96.92
2023-05-14T00:39:30.732Z,97.01
2023-05-14T00:40:30.738Z,97.02
2023-05-14T00:41:30.717Z,97.06
2023-05-14T00:42:30.698Z,97.07
2023-05-14T00:43:30.691Z,97.08
2023-05-14T00:44:30.669Z,97.16
2023-05-14T00:45:30.673Z,97.18
2023-05-14T00:46:30.677Z,97.11
2023-05-14T00:47:30.718Z,97.16
2023-05-14T00:48:30.620Z,97.25
2023-05-14T00:49:30.634Z,97.20
2023-05-14T00:50:30.598Z,97.19
2023-05-14T00:51:30.582Z,97.22
2023-05-14T00:52:30.596Z,97.22
2023-05-14T00:53:30.562Z,97.19
2023-05-14T00:54:30.567Z,97.28
2023-05-14T00:55:30.532Z,97.28
2023-05-14T00:56:30.515Z,97.33
2023-05-14T00:57:30.509Z,97.36
2023-05-14T00:58:30.513Z,97.38
2023-05-14T00:59:30.475Z,97.38
2023-05-14T01:00:30.462Z,97.41
2023-05-14T01:01:30.478Z,97.51
2023-05-14T01:02:30.524Z,97.43
2023-05-14T01:03:30.506Z,97.37
2023-05-14T01:04:30.430Z,97.44
2023-05-14T01:05:30.413Z,97.44
2023-05-14T01:06:30.396Z,97.43
2023-05-14T01:07:30.404Z,97.43
2023-05-14T01:08:30.362Z,97.41
2023-05-14T01:09:30.358Z,97.41
2023-05-14T01:10:30.364Z,97.47
2023-05-14T01:11:30.323Z,97.48
2023-05-14T01:12:30.302Z,97.44
2023-05-14T01:13:30.322Z,97.39
2023-05-14T01:14:30.277Z,97.40
2023-05-14T01:15:30.270Z,97.40
2023-05-14T01:16:30.308Z,97.42
2023-05-14T01:17:30.327Z,97.41
2023-05-14T01:18:30.283Z,97.41
2023-05-14T01:19:30.234Z,97.43
2023-05-14T01:20:30.203Z,97.44
2023-05-14T01:21:30.193Z,97.40
2023-05-14T01:22:30.207Z,97.33
2023-05-14T01:23:30.167Z,97.20
2023-05-14T01:24:30.148Z,97.18
2023-05-14T01:25:30.149Z,97.17
2023-05-14T01:26:30.123Z,97.16
2023-05-14T01:27:30.109Z,97.12
2023-05-14T01:28:30.132Z,97.11
2023-05-14T01:29:30.090Z,97.09
2023-05-14T01:30:30.079Z,97.12
2023-05-14T01:31:30.111Z,97.11
2023-05-14T01:32:30.112Z,97.19
2023-05-14T01:33:30.052Z,97.21
2023-05-14T01:34:30.049Z,97.19
2023-05-14T01:35:30.011Z,97.21
2023-05-14T01:36:30.022Z,97.22
2023-05-14T01:37:29.992Z,97.22
2023-05-14T01:38:29.979Z,97.26
2023-05-14T01:39:29.971Z,97.29
2023-05-14T01:40:29.965Z,97.34
2023-05-14T01:41:29.934Z,97.37
2023-05-14T01:42:29.955Z,97.38
2023-05-14T01:43:29.942Z,97.41
2023-05-14T01:44:29.904Z,97.39
2023-05-14T01:45:29.912Z,97.42
2023-05-14T01:46:29.922Z,97.47
2023-05-14T01:47:29.868Z,97.47
2023-05-14T01:48:29.855Z,97.48
2023-05-14T01:49:29.827Z,97.50
2023-05-14T01:50:29.814Z,97.50
2023-05-14T01:51:29.817Z,97.50
2023-05-14T01:52:29.790Z,97.50
2023-05-14T01:53:29.780Z,97.53
2023-05-14T01:54:29.761Z,97.56
2023-05-14T01:55:29.774Z,97.52
2023-05-14T01:56:29.749Z,97.52
2023-05-14T01:57:29.758Z,97.52
2023-05-14T01:58:29.710Z,97.53
2023-05-14T01:59:29.705Z,97.50
2023-05-14T02:00:29.701Z,97.50
2023-05-14T02:01:29.690Z,97.50
2023-05-14T02:02:29.741Z,97.52
2023-05-14T02:03:29.681Z,97.54
2023-05-14T02:04:29.648Z,97.52
2023-05-14T02:05:29.630Z,97.49
2023-05-14T02:06:29.611Z,97.54
2023-05-14T02:07:29.595Z,97.50
2023-05-14T02:08:29.619Z,97.50
2023-05-14T02:09:29.597Z,97.51
2023-05-14T02:10:29.569Z,97.53
2023-05-14T02:11:29.544Z,97.53
2023-05-14T02:12:29.536Z,97.55
2023-05-14T02:13:29.543Z,97.59
2023-05-14T02:14:29.572Z,97.58
2023-05-14T02:15:29.529Z,97.62
2023-05-14T02:16:29.695Z,97.64
2023-05-14T02:17:29.545Z,97.63
2023-05-14T02:18:29.520Z,97.59
2023-05-14T02:19:29.447Z,97.57
2023-05-14T02:20:29.468Z,97.58
2023-05-14T02:21:29.411Z,97.65
2023-05-14T02:22:29.441Z,97.71
2023-05-14T02:23:40.543Z,97.73
2023-05-14T02:24:29.417Z,97.65
2023-05-14T02:25:29.374Z,97.67
2023-05-14T02:26:29.377Z,97.72
2023-05-14T02:27:29.363Z,97.74
2023-05-14T02:28:29.341Z,97.80
2023-05-14T02:29:29.318Z,97.85
2023-05-14T02:30:29.333Z,97.86
2023-05-14T02:31:29.349Z,97.87
2023-05-14T02:32:29.340Z,97.95
2023-05-14T02:33:29.342Z,97.97
2023-05-14T02:34:29.254Z,97.97
2023-05-14T02:35:29.244Z,98.00
2023-05-14T02:36:29.256Z,97.97
2023-05-14T02:37:29.217Z,97.94
2023-05-14T02:38:29.256Z,98.03
2023-05-14T02:39:29.222Z,98.08
2023-05-14T02:40:29.184Z,98.09
2023-05-14T02:41:29.168Z,98.18
2023-05-14T02:42:29.201Z,98.27
2023-05-14T02:43:29.155Z,98.39
2023-05-14T02:44:29.149Z,98.53
2023-05-14T02:45:29.129Z,98.62
2023-05-14T02:46:29.140Z,98.72
2023-05-14T02:47:29.141Z,98.85
2023-05-14T02:48:29.077Z,98.94
2023-05-14T02:49:29.063Z,99.07
2023-05-14T02:50:29.062Z,99.11
2023-05-14T02:51:29.056Z,99.19
2023-05-14T02:52:29.066Z,99.31
2023-05-14T02:53:29.032Z,99.44
2023-05-14T02:54:29.005Z,99.54
2023-05-14T02:55:28.993Z,99.65
2023-05-14T02:56:28.989Z,99.67
2023-05-14T02:57:28.964Z,99.75
2023-05-14T02:58:28.970Z,99.84
2023-05-14T02:59:28.960Z,99.92
2023-05-14T03:00:28.946Z,99.96
2023-05-14T03:01:29.126Z,100.00
2023-05-14T03:02:29.035Z,100.00
2023-05-14T03:03:28.915Z,100.00
2023-05-14T03:04:28.870Z,100.00
2023-05-14T03:05:28.881Z,100.00
2023-05-14T03:06:28.873Z,100.00
2023-05-14T03:07:28.827Z,100.00
2023-05-14T03:08:28.842Z,100.00
2023-05-14T03:09:28.830Z,100.00
2023-05-14T03:10:28.804Z,100.00
2023-05-14T03:11:28.819Z,100.00
2023-05-14T03:12:28.773Z,100.00
2023-05-14T03:13:28.755Z,100.00
2023-05-14T03:14:28.747Z,100.00
2023-05-14T03:15:28.733Z,100.00
2023-05-14T03:16:28.769Z,100.00
2023-05-14T03:17:28.802Z,100.00
2023-05-14T03:18:28.714Z,100.00
2023-05-14T03:19:28.701Z,100.00
2023-05-14T03:20:28.674Z,100.00
2023-05-14T03:21:28.703Z,100.00
2023-05-14T03:22:28.653Z,100.00
2023-05-14T03:23:28.650Z,100.00
2023-05-14T03:24:28.624Z,100.00
2023-05-14T03:25:28.616Z,100.00
2023-05-14T03:26:28.610Z,100.00
2023-05-14T03:27:28.602Z,100.00
2023-05-14T03:28:28.566Z,100.00
2023-05-14T03:29:28.562Z,100.00
2023-05-14T03:30:28.585Z,100.00
2023-05-14T03:31:28.538Z,100.00
2023-05-14T03:32:28.559Z,100.00
2023-05-14T03:33:28.514Z,100.00
2023-05-14T03:34:28.515Z,100.00
2023-05-14T03:35:28.496Z,100.00
2023-05-14T03:36:28.479Z,100.00
2023-05-14T03:37:28.452Z,100.00
2023-05-14T03:38:28.439Z,100.00
2023-05-14T03:39:28.440Z,100.00
2023-05-14T03:40:28.417Z,100.00
2023-05-14T03:41:28.401Z,100.00
2023-05-14T03:42:28.385Z,100.00
2023-05-14T03:43:28.370Z,100.00
2023-05-14T03:44:28.377Z,100.00
2023-05-14T03:45:28.382Z,100.00
2023-05-14T03:46:28.340Z,100.00
2023-05-14T03:47:28.352Z,100.00
2023-05-14T03:48:29.257Z,100.00
2023-05-14T03:49:28.329Z,100.00
2023-05-14T03:50:28.315Z,100.00
2023-05-14T03:51:28.278Z,100.00
2023-05-14T03:52:28.283Z,100.00
2023-05-14T03:53:28.242Z,100.00
2023-05-14T03:54:28.252Z,100.00
2023-05-14T03:55:28.230Z,100.00
2023-05-14T03:56:28.238Z,100.00
2023-05-14T03:57:28.196Z,100.00
2023-05-14T03:58:28.229Z,100.00
2023-05-14T03:59:28.159Z,100.00
2023-05-14T04:00:28.158Z,100.00
2023-05-14T04:01:28.175Z,100.00
2023-05-14T04:02:28.227Z,100.00
2023-05-14T04:03:28.346Z,100.00
2023-05-14T04:04:28.148Z,100.00
2023-05-14T04:05:28.088Z,100.00
2023-05-14T04:06:28.085Z,100.00
2023-05-14T04:07:28.074Z,100.00
2023-05-14T04:08:28.086Z,100.00
2023-05-14T04:09:28.064Z,100.00
2023-05-14T04:10:28.026Z,100.00
2023-05-14T04:11:28.021Z,100.00
2023-05-14T04:12:28.019Z,100.00
2023-05-14T04:13:27.982Z,100.00
2023-05-14T04:14:28.005Z,100.00
2023-05-14T04:15:27.962Z,100.00
2023-05-14T04:16:28.006Z,100.00
2023-05-14T04:17:27.982Z,100.00
2023-05-14T04:18:27.970Z,100.00
2023-05-14T04:19:27.938Z,100.00
2023-05-14T04:20:27.920Z,100.00
2023-05-14T04:21:27.891Z,100.00
2023-05-14T04:22:27.870Z,100.00
2023-05-14T04:23:27.869Z,100.00
2023-05-14T04:24:27.875Z,100.00
2023-05-14T04:25:27.858Z,100.00
2023-05-14T04:26:27.826Z,100.00
2023-05-14T04:27:27.822Z,100.00
2023-05-14T04:28:27.806Z,100.00
2023-05-14T04:29:27.812Z,100.00
2023-05-14T04:30:27.775Z,100.00
2023-05-14T04:31:27.788Z,100.00
2023-05-14T04:32:27.755Z,100.00
2023-05-14T04:33:27.740Z,100.00
2023-05-14T04:34:27.717Z,100.00
2023-05-14T04:35:27.717Z,100.00
2023-05-14T04:36:27.686Z,100.00
2023-05-14T04:37:27.697Z,100.00
2023-05-14T04:38:27.694Z,100.00
2023-05-14T04:39:27.649Z,100.00
2023-05-14T04:40:27.658Z,100.00
2023-05-14T04:41:27.648Z,100.00
2023-05-14T04:42:27.614Z,100.00
2023-05-14T04:43:27.633Z,100.00
2023-05-14T04:44:27.588Z,100.00
2023-05-14T04:45:27.607Z,100.00
2023-05-14T04:46:27.682Z,100.00
2023-05-14T04:47:27.601Z,100.00
2023-05-14T04:48:27.540Z,100.00
2023-05-14T04:49:27.557Z,100.00
2023-05-14T04:50:27.513Z,100.00
2023-05-14T04:51:27.537Z,100.00
2023-05-14T04:52:27.486Z,100.00
2023-05-14T04:53:27.508Z,100.00
2023-05-14T04:54:27.483Z,100.00
2023-05-14T04:55:27.494Z,100.00
2023-05-14T04:56:27.444Z,100.00
2023-05-14T04:57:27.452Z,100.00
2023-05-14T04:58:27.406Z,100.00
2023-05-14T04:59:27.398Z,100.00
2023-05-14T05:00:27.506Z,100.00
2023-05-14T05:01:27.415Z,100.00
2023-05-14T05:02:27.435Z,100.00
2023-05-14T05:03:27.446Z,100.00
2023-05-14T05:04:27.353Z,100.00
2023-05-14T05:05:27.361Z,100.00
2023-05-14T05:06:27.359Z,100.00
2023-05-14T05:07:27.335Z,100.00
2023-05-14T05:08:27.282Z,100.00
2023-05-14T05:09:27.279Z,100.00
2023-05-14T05:10:27.272Z,100.00
2023-05-14T05:11:27.269Z,100.00
2023-05-14T05:12:27.249Z,100.00
2023-05-14T05:13:27.233Z,100.00
2023-05-14T05:14:27.237Z,100.00
2023-05-14T05:15:27.210Z,100.00
2023-05-14T05:16:27.350Z,100.00
2023-05-14T05:17:27.256Z,100.00
2023-05-14T05:18:27.182Z,100.00
2023-05-14T05:19:39.601Z,100.00
2023-05-14T05:20:27.154Z,100.00
2023-05-14T05:21:27.152Z,100.00
2023-05-14T05:22:27.110Z,100.00
2023-05-14T05:23:27.129Z,100.00
2023-05-14T05:24:27.083Z,100.00
2023-05-14T05:25:27.085Z,100.00
2023-05-14T05:26:27.056Z,100.00
2023-05-14T05:27:27.052Z,100.00
2023-05-14T05:28:27.040Z,100.00
2023-05-14T05:29:27.054Z,100.00
2023-05-14T05:30:27.019Z,100.00
2023-05-14T05:31:27.029Z,100.00
2023-05-14T05:32:27.032Z,100.00
2023-05-14T05:33:26.990Z,100.00
2023-05-14T05:34:26.954Z,100.00
2023-05-14T05:35:27.006Z,100.00
2023-05-14T05:36:26.926Z,100.00
2023-05-14T05:37:26.986Z,100.00
2023-05-14T05:38:26.904Z,100.00
2023-05-14T05:39:26.914Z,100.00
2023-05-14T05:40:26.884Z,100.00
2023-05-14T05:41:26.883Z,100.00
2023-05-14T05:42:26.868Z,100.00
2023-05-14T05:43:26.835Z,100.00
2023-05-14T05:44:26.831Z,100.00
2023-05-14T05:45:26.809Z,100.00
2023-05-14T05:46:26.829Z,100.00
2023-05-14T05:47:26.847Z,100.00
2023-05-14T05:48:26.780Z,100.00
2023-05-14T05:49:26.765Z,100.00
2023-05-14T05:50:26.764Z,100.00
2023-05-14T05:51:26.735Z,100.00
2023-05-14T05:52:26.759Z,100.00
2023-05-14T05:53:26.709Z,100.00
2023-05-14T05:54:26.705Z,100.00
2023-05-14T05:55:26.689Z,100.00
2023-05-14T05:56:26.658Z,100.00
2023-05-14T05:57:26.656Z,100.00
2023-05-14T05:58:26.704Z,100.00
2023-05-14T05:59:26.646Z,100.00
2023-05-14T06:00:26.898Z,100.00
2023-05-14T06:01:26.629Z,100.00
2023-05-14T06:02:26.762Z,100.00
2023-05-14T06:03:26.636Z,100.00
2023-05-14T06:04:26.588Z,100.00
2023-05-14T06:05:26.663Z,100.00
2023-05-14T06:06:26.550Z,100.00
2023-05-14T06:07:26.532Z,100.00
2023-05-14T06:08:26.542Z,100.00
2023-05-14T06:09:26.495Z,100.00
2023-05-14T06:10:26.614Z,100.00
2023-05-14T06:11:26.512Z,100.00
2023-05-14T06:12:26.467Z,100.00
2023-05-14T06:13:26.468Z,100.00
2023-05-14T06:14:26.454Z,100.00
2023-05-14T06:15:26.430Z,100.00
2023-05-14T06:16:26.495Z,100.00
2023-05-14T06:17:26.404Z,100.00
2023-05-14T06:18:26.432Z,100.00
2023-05-14T06:19:26.389Z,100.00
2023-05-14T06:20:26.611Z,100.00
2023-05-14T06:21:26.367Z,100.00
2023-05-14T06:22:26.350Z,100.00
2023-05-14T06:23:26.323Z,100.00
2023-05-14T06:24:26.311Z,100.00
2023-05-14T06:25:26.297Z,100.00
2023-05-14T06:26:26.300Z,100.00
2023-05-14T06:27:26.301Z,100.00
2023-05-14T06:28:26.287Z,100.00
2023-05-14T06:29:26.248Z,100.00
2023-05-14T06:30:26.452Z,100.00
2023-05-14T06:31:26.281Z,100.00
2023-05-14T06:32:26.260Z,100.00
2023-05-14T06:33:26.209Z,100.00
2023-05-14T06:34:26.182Z,100.00
2023-05-14T06:35:26.201Z,100.00
2023-05-14T06:36:26.158Z,100.00
2023-05-14T06:37:26.162Z,100.00
2023-05-14T06:38:26.133Z,100.00
2023-05-14T06:39:26.126Z,100.00
2023-05-14T06:40:26.255Z,100.00
2023-05-14T06:41:26.115Z,100.00
2023-05-14T06:42:26.144Z,100.00
2023-05-14T06:43:26.085Z,100.00
2023-05-14T06:44:26.067Z,100.00
2023-05-14T06:45:26.048Z,100.00
2023-05-14T06:46:26.056Z,100.00
2023-05-14T06:47:26.041Z,100.00
2023-05-14T06:48:26.097Z,100.00
2023-05-14T06:49:25.994Z,100.00
2023-05-14T06:50:26.040Z,100.00
2023-05-14T06:51:25.986Z,100.00
2023-05-14T06:52:25.946Z,100.00
2023-05-14T06:53:25.944Z,100.00
2023-05-14T06:54:25.948Z,100.00
2023-05-14T06:55:25.909Z,100.00
2023-05-14T06:56:25.900Z,100.00
2023-05-14T06:57:25.879Z,100.00
2023-05-14T06:58:25.894Z,100.00
2023-05-14T06:59:25.882Z,100.00
2023-05-14T07:00:26.180Z,100.00
2023-05-14T07:01:25.860Z,100.00
2023-05-14T07:02:25.856Z,100.00
2023-05-14T07:03:25.822Z,100.00
2023-05-14T07:04:25.897Z,100.00
2023-05-14T07:05:25.793Z,100.00
2023-05-14T07:06:25.796Z,100.00
2023-05-14T07:07:25.781Z,100.00
2023-05-14T07:08:25.742Z,100.00
2023-05-14T07:09:25.770Z,100.00
2023-05-14T07:10:25.950Z,100.00
2023-05-14T07:11:25.731Z,100.00
2023-05-14T07:12:25.688Z,100.00
2023-05-14T07:13:27.680Z,100.00
2023-05-14T07:14:25.666Z,100.00
2023-05-14T07:15:25.680Z,100.00
2023-05-14T07:16:25.679Z,100.00
2023-05-14T07:17:25.677Z,100.00
2023-05-14T07:18:25.651Z,100.00
2023-05-14T07:19:25.607Z,100.00
2023-05-14T07:20:25.885Z,100.00
2023-05-14T07:21:25.569Z,100.00
2023-05-14T07:22:25.569Z,100.00
2023-05-14T07:23:25.562Z,100.00
2023-05-14T07:24:25.542Z,100.00
2023-05-14T07:25:25.557Z,99.91
2023-05-14T07:26:25.528Z,99.87
2023-05-14T07:27:25.496Z,99.94
2023-05-14T07:28:25.517Z,99.67
2023-05-14T07:29:25.517Z,99.71
2023-05-14T07:30:25.850Z,99.61
2023-05-14T07:31:25.501Z,99.46
2023-05-14T07:32:25.464Z,99.51
2023-05-14T07:33:25.442Z,99.48
2023-05-14T07:34:25.412Z,99.14
2023-05-14T07:35:25.414Z,98.99
2023-05-14T07:36:25.416Z,98.81
2023-05-14T07:37:25.378Z,98.74
2023-05-14T07:38:25.380Z,98.81
2023-05-14T07:39:25.354Z,98.37
2023-05-14T07:40:25.668Z,97.48
2023-05-14T07:41:25.328Z,97.28
2023-05-14T07:42:34.995Z,97.61
2023-05-14T07:43:25.314Z,97.55
2023-05-14T07:44:25.277Z,97.42
2023-05-14T07:45:25.276Z,97.36
2023-05-14T07:46:25.254Z,97.65
2023-05-14T07:47:25.285Z,97.19
2023-05-14T07:48:25.269Z,97.04
2023-05-14T07:49:25.211Z,96.06
2023-05-14T07:50:25.451Z,96.11
2023-05-14T07:51:25.197Z,96.31
2023-05-14T07:52:25.196Z,96.06
2023-05-14T07:53:25.183Z,96.36
2023-05-14T07:54:25.149Z,95.83
2023-05-14T07:55:25.332Z,95.48
2023-05-14T07:56:25.143Z,94.70
2023-05-14T07:57:25.136Z,95.19
2023-05-14T07:58:25.163Z,95.87
2023-05-14T07:59:25.093Z,96.11
2023-05-14T08:00:25.362Z,95.82
2023-05-14T08:01:25.057Z,95.25
2023-05-14T08:02:25.125Z,94.91
2023-05-14T08:03:25.212Z,94.73
2023-05-14T08:04:25.094Z,94.64
2023-05-14T08:05:25.039Z,93.97
2023-05-14T08:06:25.001Z,93.94
2023-05-14T08:07:25.007Z,93.78
2023-05-14T08:08:24.973Z,93.63
2023-05-14T08:09:24.959Z,92.93
2023-05-14T08:10:25.260Z,93.06
2023-05-14T08:11:24.965Z,93.54
2023-05-14T08:12:24.939Z,93.22
2023-05-14T08:13:24.914Z,93.28
2023-05-14T08:14:24.906Z,92.96
2023-05-14T08:15:27.582Z,92.87
2023-05-14T08:16:24.941Z,92.31
2023-05-14T08:17:24.913Z,93.13
2023-05-14T08:18:24.950Z,93.06
2023-05-14T08:19:24.838Z,92.41
2023-05-14T08:20:25.189Z,92.90
2023-05-14T08:21:24.818Z,93.48
2023-05-14T08:22:24.827Z,94.56
2023-05-14T08:23:24.792Z,94.36
2023-05-14T08:24:24.769Z,93.84
2023-05-14T08:25:24.782Z,94.04
2023-05-14T08:26:24.750Z,94.23
2023-05-14T08:27:24.736Z,93.95
2023-05-14T08:28:24.742Z,93.43
2023-05-14T08:29:24.722Z,93.81
2023-05-14T08:30:24.949Z,94.04
2023-05-14T08:31:24.740Z,94.07
2023-05-14T08:32:24.692Z,93.32
2023-05-14T08:33:24.664Z,93.74
2023-05-14T08:34:24.689Z,94.21
2023-05-14T08:35:24.629Z,94.26
2023-05-14T08:36:24.626Z,94.26
2023-05-14T08:37:24.609Z,94.43
2023-05-14T08:38:24.628Z,93.82
2023-05-14T08:39:24.569Z,93.77
2023-05-14T08:40:24.771Z,92.99
2023-05-14T08:41:24.575Z,93.37
2023-05-14T08:42:24.545Z,93.39
2023-05-14T08:43:24.525Z,93.29
2023-05-14T08:44:24.532Z,93.06
2023-05-14T08:45:24.525Z,92.88
2023-05-14T08:46:24.523Z,93.18
2023-05-14T08:47:24.527Z,92.48
2023-05-14T08:48:24.579Z,92.32
2023-05-14T08:49:24.495Z,92.08
2023-05-14T08:50:24.593Z,91.86
2023-05-14T08:51:24.452Z,92.28
2023-05-14T08:52:24.424Z,91.89
2023-05-14T08:53:24.405Z,91.06
2023-05-14T08:54:24.425Z,91.38
2023-05-14T08:55:24.367Z,91.07
2023-05-14T08:56:24.378Z,91.60
2023-05-14T08:57:24.378Z,91.11
2023-05-14T08:58:24.344Z,91.24
2023-05-14T08:59:24.317Z,91.73
2023-05-14T09:00:24.700Z,91.79
2023-05-14T09:01:24.651Z,91.15
2023-05-14T09:02:24.354Z,92.05
2023-05-14T09:03:24.325Z,91.58
2023-05-14T09:04:24.257Z,91.63
2023-05-14T09:05:24.244Z,92.15
2023-05-14T09:06:24.260Z,91.77
2023-05-14T09:07:24.216Z,90.51
2023-05-14T09:08:24.206Z,90.63
2023-05-14T09:09:24.244Z,90.05
2023-05-14T09:10:24.422Z,90.14
2023-05-14T09:11:24.165Z,90.08
2023-05-14T09:12:24.154Z,89.80
2023-05-14T09:13:25.318Z,89.25
2023-05-14T09:14:24.139Z,88.65
2023-05-14T09:15:24.139Z,89.67
2023-05-14T09:16:24.157Z,88.86
2023-05-14T09:17:24.110Z,89.43
2023-05-14T09:18:24.089Z,89.15
2023-05-14T09:19:24.092Z,90.10
2023-05-14T09:20:24.221Z,89.19
2023-05-14T09:21:24.086Z,87.61
2023-05-14T09:22:24.050Z,88.24
2023-05-14T09:23:24.026Z,87.47
2023-05-14T09:24:24.072Z,87.21
2023-05-14T09:25:23.991Z,87.16
2023-05-14T09:26:23.980Z,86.46
2023-05-14T09:27:23.987Z,86.44
2023-05-14T09:28:23.952Z,87.07
2023-05-14T09:29:23.938Z,85.77
2023-05-14T09:30:24.065Z,86.18
2023-05-14T09:31:23.946Z,87.39
2023-05-14T09:32:23.969Z,86.90
2023-05-14T09:33:23.930Z,86.61
2023-05-14T09:34:23.882Z,85.92
2023-05-14T09:35:23.902Z,86.53
2023-05-14T09:36:23.843Z,86.80
2023-05-14T09:37:23.851Z,86.07
2023-05-14T09:38:23.833Z,84.56
2023-05-14T09:39:23.834Z,84.43
2023-05-14T09:40:24.593Z,83.89
2023-05-14T09:41:23.794Z,83.09
2023-05-14T09:42:23.774Z,82.47
2023-05-14T09:43:23.775Z,82.54
2023-05-14T09:44:23.753Z,81.62
2023-05-14T09:45:23.767Z,83.19
2023-05-14T09:46:23.745Z,83.47
2023-05-14T09:47:23.763Z,83.28
2023-05-14T09:48:23.707Z,80.93
2023-05-14T09:49:23.718Z,80.66
2023-05-14T09:50:23.830Z,81.88
2023-05-14T09:51:23.691Z,82.61
2023-05-14T09:52:23.657Z,82.39
2023-05-14T09:53:23.636Z,83.01
2023-05-14T09:54:23.644Z,81.49
2023-05-14T09:55:23.614Z,80.65
2023-05-14T09:56:23.630Z,80.07
2023-05-14T09:57:23.585Z,78.56
2023-05-14T09:58:23.587Z,78.08
2023-05-14T09:59:23.609Z,78.91
2023-05-14T10:00:23.805Z,78.19
2023-05-14T10:01:23.587Z,79.20
2023-05-14T10:02:23.600Z,79.59
2023-05-14T10:03:23.525Z,79.45
2023-05-14T10:04:23.632Z,79.69
2023-05-14T10:05:23.498Z,78.86
2023-05-14T10:06:23.500Z,78.53
2023-05-14T10:07:23.489Z,79.23
2023-05-14T10:08:23.460Z,79.39
2023-05-14T10:09:23.455Z,78.34
2023-05-14T10:10:23.678Z,76.93
2023-05-14T10:11:23.440Z,76.42
2023-05-14T10:12:23.421Z,76.30
2023-05-14T10:13:23.417Z,75.61
2023-05-14T10:14:23.385Z,75.90
2023-05-14T10:15:23.376Z,76.74
2023-05-14T10:16:23.381Z,77.18
2023-05-14T10:17:23.357Z,78.05
2023-05-14T10:18:23.331Z,79.28
2023-05-14T10:19:23.427Z,80.23
2023-05-14T10:20:23.556Z,81.24
2023-05-14T10:21:23.307Z,82.13
2023-05-14T10:22:23.285Z,83.20
2023-05-14T10:23:23.275Z,83.99
2023-05-14T10:24:23.285Z,84.53
2023-05-14T10:25:23.298Z,83.52
2023-05-14T10:26:24.097Z,84.13
2023-05-14T10:27:23.218Z,84.80
2023-05-14T10:28:23.216Z,84.82
2023-05-14T10:29:23.213Z,84.69
2023-05-14T10:30:23.509Z,84.73
2023-05-14T10:31:23.270Z,83.85
2023-05-14T10:32:23.199Z,83.31
2023-05-14T10:33:23.163Z,83.43
2023-05-14T10:34:23.287Z,83.30
2023-05-14T10:35:23.111Z,83.66
2023-05-14T10:36:23.129Z,84.10
2023-05-14T10:37:23.139Z,83.74
2023-05-14T10:38:23.099Z,82.74
2023-05-14T10:39:23.061Z,82.41
2023-05-14T10:40:23.238Z,82.59
2023-05-14T10:41:23.041Z,83.24
2023-05-14T10:42:23.047Z,82.55
2023-05-14T10:43:23.040Z,82.22
2023-05-14T10:44:23.009Z,82.40
2023-05-14T10:45:22.998Z,82.33
2023-05-14T10:46:22.990Z,82.79
2023-05-14T10:47:22.953Z,82.57
2023-05-14T10:48:22.989Z,82.38
2023-05-14T10:49:35.595Z,81.17
2023-05-14T10:50:23.218Z,81.82
2023-05-14T10:51:22.998Z,81.26
2023-05-14T10:52:22.891Z,81.21
2023-05-14T10:53:22.892Z,81.29
2023-05-14T10:54:22.872Z,81.48
2023-05-14T10:55:22.873Z,80.52
2023-05-14T10:56:22.848Z,80.64
2023-05-14T10:57:22.847Z,80.53
2023-05-14T10:58:22.861Z,79.60
2023-05-14T10:59:22.814Z,80.55
2023-05-14T11:00:23.028Z,80.20
2023-05-14T11:01:22.838Z,80.01
2023-05-14T11:02:22.824Z,80.02
2023-05-14T11:03:22.777Z,81.63
2023-05-14T11:04:22.790Z,82.87
2023-05-14T11:05:22.748Z,81.81
2023-05-14T11:06:22.738Z,81.87
2023-05-14T11:07:22.751Z,81.89
2023-05-14T11:08:26.006Z,81.67
2023-05-14T11:09:22.721Z,82.04
2023-05-14T11:10:23.026Z,82.53
2023-05-14T11:11:22.677Z,83.82
2023-05-14T11:12:22.650Z,84.17
2023-05-14T11:13:22.719Z,84.27
2023-05-14T11:14:22.640Z,83.43
2023-05-14T11:15:22.646Z,83.39
2023-05-14T11:16:23.962Z,83.58
2023-05-14T11:17:22.585Z,83.50
2023-05-14T11:18:22.594Z,84.21
2023-05-14T11:19:22.580Z,84.30
2023-05-14T11:20:22.882Z,83.25
2023-05-14T11:21:22.567Z,83.11
2023-05-14T11:22:22.524Z,83.39
2023-05-14T11:23:22.518Z,83.75
2023-05-14T11:24:22.535Z,84.33
2023-05-14T11:25:22.492Z,84.01
2023-05-14T11:26:22.509Z,84.12
2023-05-14T11:27:22.453Z,84.08
2023-05-14T11:28:22.477Z,84.20
2023-05-14T11:29:22.439Z,83.93
2023-05-14T11:30:22.838Z,83.93
2023-05-14T11:31:22.461Z,84.76
2023-05-14T11:32:22.433Z,85.53
2023-05-14T11:33:22.381Z,85.83
2023-05-14T11:34:22.368Z,85.52
2023-05-14T11:35:22.399Z,85.42
2023-05-14T11:36:22.360Z,85.65
2023-05-14T11:37:22.338Z,85.44
2023-05-14T11:38:22.327Z,85.78
2023-05-14T11:39:22.316Z,85.50
2023-05-14T11:40:22.591Z,84.53
2023-05-14T11:41:22.281Z,84.27
2023-05-14T11:42:22.310Z,83.11
2023-05-14T11:43:22.261Z,82.98
2023-05-14T11:44:22.248Z,83.27
2023-05-14T11:45:22.229Z,82.99
2023-05-14T11:46:22.252Z,82.64
2023-05-14T11:47:22.217Z,83.12
2023-05-14T11:48:22.243Z,83.04
2023-05-14T11:49:22.208Z,82.96
2023-05-14T11:50:22.446Z,83.98
2023-05-14T11:51:22.150Z,83.93
2023-05-14T11:52:22.174Z,84.20
2023-05-14T11:53:22.134Z,84.44
2023-05-14T11:54:22.126Z,84.64
2023-05-14T11:55:22.108Z,84.54
2023-05-14T11:56:22.094Z,83.62
2023-05-14T11:57:22.102Z,83.51
2023-05-14T11:58:22.061Z,83.19
2023-05-14T11:59:22.051Z,82.86
2023-05-14T12:00:22.417Z,83.35
2023-05-14T12:01:22.018Z,83.85
2023-05-14T12:02:22.041Z,82.77
2023-05-14T12:03:22.224Z,82.53
2023-05-14T12:04:22.029Z,83.13
2023-05-14T12:05:21.973Z,82.24
2023-05-14T12:06:21.980Z,82.02
2023-05-14T12:07:21.957Z,82.22
2023-05-14T12:08:21.946Z,81.76
2023-05-14T12:09:21.944Z,81.10
2023-05-14T12:10:22.083Z,80.91
2023-05-14T12:11:21.925Z,81.00
2023-05-14T12:12:21.909Z,81.22
2023-05-14T12:13:21.874Z,80.29
2023-05-14T12:14:21.867Z,80.15
2023-05-14T12:15:22.109Z,80.15
2023-05-14T12:16:21.879Z,79.40
2023-05-14T12:17:21.892Z,79.40
2023-05-14T12:18:24.942Z,80.04
2023-05-14T12:19:21.912Z,79.29
2023-05-14T12:20:21.948Z,78.63
2023-05-14T12:21:21.783Z,79.00
2023-05-14T12:22:21.772Z,78.87
2023-05-14T12:23:21.767Z,78.11
2023-05-14T12:24:21.729Z,78.08
2023-05-14T12:25:21.734Z,78.50
2023-05-14T12:26:21.701Z,76.96
2023-05-14T12:27:21.691Z,78.40
2023-05-14T12:28:21.705Z,78.73
2023-05-14T12:29:21.668Z,79.03
2023-05-14T12:30:22.300Z,79.84
2023-05-14T12:31:21.685Z,80.38
2023-05-14T12:32:21.676Z,79.98
2023-05-14T12:33:21.647Z,81.64
2023-05-14T12:34:21.600Z,81.39
2023-05-14T12:35:21.673Z,81.54
2023-05-14T12:36:22.386Z,82.31
2023-05-14T12:37:21.566Z,82.79
2023-05-14T12:38:21.557Z,82.42
2023-05-14T12:39:21.558Z,83.20
2023-05-14T12:40:21.716Z,83.20
2023-05-14T12:41:21.513Z,82.64
2023-05-14T12:42:21.509Z,83.23
2023-05-14T12:43:21.513Z,82.66
2023-05-14T12:44:21.488Z,81.74